CheckWX is a tool to help pilots better visualize weather data.  It is not intended as a substitute for an official pre-flight weather briefing.

05:47:59 UTC

KCLL TAF
Easterwood Field Airport
College Station, Texas, USA
KCLL 260523Z 2606/2706 34011G21KT P6SM VCSH SCT050 BKN110 FM260800 33015G24KT P6SM FEW045 SCT180 FM261200 32017G27KT P6SM SCT045 OVC070 FM261600 33020G30KT P6SM FEW025 SCT080 FM262200 34017G27KT P6SM FEW250 FM270000 34009KT P6SM SKC

Feb-26@
06:00 UTC

Feb-26 @ 06:00 UTC

Feb-26@
08:00 UTC

Feb-26 @ 08:00 UTC

KCLL 260523Z 2606/2706 34011G21KT P6SM VCSH SCT050 BKN110
Wind
  • 340° at 11 KTS
  • {Gusting to 21 KTS
Cloud Levels
  • Scattered at 5,000' AGL
  • Broken at 11,000' AGL

Feb-26@
08:00 UTC

Feb-26 @ 08:00 UTC

Feb-26@
12:00 UTC

Feb-26 @ 12:00 UTC

FM260800 33015G24KT P6SM FEW045 SCT180

From

From Standard forecast or significant change

Wind
  • 330° at 15 KTS
  • {Gusting to 24 KTS
Cloud Levels
  • Few at 4,500' AGL
  • Scattered at 18,000' AGL

Feb-26@
12:00 UTC

Feb-26 @ 12:00 UTC

Feb-26@
16:00 UTC

Feb-26 @ 16:00 UTC

FM261200 32017G27KT P6SM SCT045 OVC070

From

From Standard forecast or significant change

Wind
  • 320° at 17 KTS
  • {Gusting to 27 KTS
Cloud Levels
  • Scattered at 4,500' AGL
  • Overcast at 7,000' AGL

Feb-26@
16:00 UTC

Feb-26 @ 16:00 UTC

Feb-26@
22:00 UTC

Feb-26 @ 22:00 UTC

FM261600 33020G30KT P6SM FEW025 SCT080

From

From Standard forecast or significant change

Wind
  • 330° at 20 KTS
  • {Gusting to 30 KTS
Cloud Levels
  • Few at 2,500' AGL
  • Scattered at 8,000' AGL

Feb-26@
22:00 UTC

Feb-26 @ 22:00 UTC

Feb-27@
00:00 UTC

Feb-27 @ 00:00 UTC

FM262200 34017G27KT P6SM FEW250

From

From Standard forecast or significant change

Wind
  • 340° at 17 KTS
  • {Gusting to 27 KTS
Cloud Levels
  • Few at 25,000' AGL

Feb-27@
00:00 UTC

Feb-27 @ 00:00 UTC

Feb-27@
06:00 UTC

Feb-27 @ 06:00 UTC

FM270000 34009KT P6SM SKC

From

From Standard forecast or significant change

Wind
  • 340° at 9 KTS
Cloud Levels
  • Clear skies